Airfield :
LOGIN :

Register | Disclaimer

   EN    FR    IT 

 










Legend :    VFR   Marginal VFR   IFR   Intensive IFR   Very Intensive IFR
Visi :
Ceiling :
>= 8 km
>= 3000ft
5 to 8 km
1000 to 3000 ft
1500m to 5 km
500 to 1000 ft
800 to 1500m
200 to 500 ft
< 800m
< 200 ft
Symbols :   Thunderstorms  Fog  Heavy snow  Heavy precipitations  Wind > 20 kt
SIGMETs :     Misc.  Thunderstorms  Icing  Turbulence  Mountain Waves  Volcanic Ashes






- Airport Elevation : 56 ft
- IATA code : ILY


EGPI - Islay

CURRENT METAR :
  • 300820Z 16026G38KT 6000 RA SCT009 SCT015 BKN033 12/12 Q0986

EXPIRED METARs :
  • 300750Z 16027G40KT 5000 RA SCT010 SCT017 BKN036 Q0987
  • 300720Z AUTO 16025G35KT 100V160 1700 +RA BKN009/// SCT020/// 12/12 Q0989
  • 300650Z 16024G36KT 5000 RA BKN008 BKN015 12/11 Q0990
  • 300620Z AUTO 15023KT 080V150 2500 RA BKN009/// SCT015/// 11/11 Q0991
  • 300550Z AUTO 16023KT 100V160 2500 RA SCT012/// BKN027/// 11/11 Q0993
  • 300520Z AUTO 16025G36KT 090V160 4200 RA SCT013/// BKN027/// 11/10 Q0994
  • 300450Z AUTO 16022KT 090V160 3500 RA FEW012/// SCT035/// 11/10 Q0995

TAF AMD TAF EGPI
Valid from the 30 at 06:00 until the 30 at 15:00 UTC


300637Z 3006/3015 17027G40KT 9999 FEW010 SCT025
TEMPO 3006/3012 6000 RA BKN010
PROB30
TEMPO 3006/3012 3000 +RA BKN006
BECMG 3007/3010 21020G35KT
BECMG 3010/3012 27015G28KT
TEMPO 3012/3015 5000 SHRA BKN010



MET'MAP, your aeronautical weather chart ! - Copyright ORBIFLY December 2007 - Disclaimer

ORBIFLY MET'MAP TEAM :

Programming & Development : Alexandra Zaïnal
Original concept : Baudouin d'Aumeries
Technical & hardware support : Manuel Goepfert
Assistance : Marc-Olivier Méhu




SOURCES & CREDITS :

   NOAA